createdAt,value
2017-10-17T00:00:59.980Z,0
2017-10-17T00:02:08.830Z,0
2017-10-17T00:03:17.680Z,0
2017-10-17T00:04:26.833Z,0
2017-10-17T00:05:36.027Z,0
2017-10-17T00:06:44.879Z,0
2017-10-17T00:07:53.730Z,0
2017-10-17T00:09:02.595Z,0
2017-10-17T00:10:11.536Z,0
2017-10-17T00:11:20.393Z,0
2017-10-17T00:12:29.243Z,0
2017-10-17T00:13:38.093Z,0
2017-10-17T00:14:46.947Z,0
2017-10-17T00:15:55.998Z,0
2017-10-17T00:17:04.849Z,0
2017-10-17T00:18:13.698Z,0
2017-10-17T00:19:22.893Z,0
2017-10-17T00:20:31.744Z,0
2017-10-17T00:21:40.941Z,0
2017-10-17T00:22:49.790Z,0
2017-10-17T00:23:58.636Z,0
2017-10-17T00:25:07.840Z,0
2017-10-17T00:26:16.693Z,0
2017-10-17T00:27:26.040Z,0
2017-10-17T00:28:34.892Z,0
2017-10-17T00:29:43.743Z,0
2017-10-17T00:30:52.600Z,0
2017-10-17T00:32:01.447Z,0
2017-10-17T00:33:10.295Z,0
2017-10-17T00:34:19.245Z,0
2017-10-17T00:35:28.091Z,0
2017-10-17T00:36:36.943Z,0
2017-10-17T00:37:45.793Z,0
2017-10-17T00:38:54.944Z,0
2017-10-17T00:40:03.798Z,0
2017-10-17T00:41:12.652Z,0
2017-10-17T00:42:21.504Z,0
2017-10-17T00:43:30.350Z,0
2017-10-17T00:44:39.303Z,0
2017-10-17T00:45:48.160Z,0
2017-10-17T00:46:57.351Z,0
2017-10-17T00:48:06.200Z,0
2017-10-17T00:49:15.046Z,0
2017-10-17T00:50:23.950Z,0
2017-10-17T00:51:32.800Z,0
2017-10-17T00:52:41.649Z,0
2017-10-17T00:53:50.701Z,0
2017-10-17T00:54:59.550Z,0
2017-10-17T00:56:08.458Z,0
2017-10-17T00:57:17.306Z,0
2017-10-17T00:58:26.156Z,0
2017-10-17T00:59:35.004Z,0
2017-10-17T01:00:43.852Z,0
2017-10-17T01:01:53.300Z,0
2017-10-17T01:03:02.153Z,0
2017-10-17T01:04:11.006Z,0
2017-10-17T01:05:19.855Z,0
2017-10-17T01:06:28.705Z,0
2017-10-17T01:07:37.557Z,0
2017-10-17T01:08:46.422Z,0
2017-10-17T01:09:55.255Z,0
2017-10-17T01:11:04.107Z,0
2017-10-17T01:12:12.949Z,0
2017-10-17T01:13:21.952Z,0
2017-10-17T01:14:30.801Z,0
2017-10-17T01:15:39.651Z,0
2017-10-17T01:16:48.503Z,0
2017-10-17T01:17:57.347Z,0
2017-10-17T01:19:06.398Z,0
2017-10-17T01:20:15.246Z,0
2017-10-17T01:21:24.097Z,0
2017-10-17T01:22:32.947Z,0
2017-10-17T01:23:41.799Z,0
2017-10-17T01:24:50.657Z,0
2017-10-17T01:25:59.509Z,0
2017-10-17T01:27:08.359Z,0
2017-10-17T01:28:17.210Z,0
2017-10-17T01:29:26.404Z,0
2017-10-17T01:30:35.455Z,0
2017-10-17T01:31:44.306Z,0
2017-10-17T01:32:53.159Z,0
2017-10-17T01:34:02.010Z,0
2017-10-17T01:35:10.862Z,0
2017-10-17T01:36:19.715Z,0
2017-10-17T01:37:28.566Z,0
2017-10-17T01:38:37.414Z,0
2017-10-17T01:39:46.264Z,0
2017-10-17T01:40:55.116Z,0
2017-10-17T01:42:04.066Z,0
2017-10-17T01:43:12.916Z,0
2017-10-17T01:44:21.765Z,0
2017-10-17T01:45:30.614Z,0
2017-10-17T01:46:39.467Z,0
2017-10-17T01:47:48.316Z,0
2017-10-17T01:48:57.167Z,0
2017-10-17T01:50:06.018Z,0
2017-10-17T01:51:14.869Z,0
2017-10-17T01:52:23.720Z,0
2017-10-17T01:53:32.707Z,0
2017-10-17T01:54:41.520Z,0
2017-10-17T01:55:50.369Z,0
2017-10-17T01:56:59.223Z,0
2017-10-17T01:58:08.069Z,0
2017-10-17T01:59:17.068Z,0
2017-10-17T02:00:25.915Z,0
2017-10-17T02:01:34.765Z,0
2017-10-17T02:02:43.959Z,0
2017-10-17T02:03:52.810Z,0
2017-10-17T02:05:01.963Z,0
2017-10-17T02:06:10.813Z,0
2017-10-17T02:07:19.660Z,0
2017-10-17T02:08:28.510Z,0
2017-10-17T02:09:37.362Z,0
2017-10-17T02:10:46.210Z,0
2017-10-17T02:11:55.062Z,0
2017-10-17T02:13:03.913Z,0
2017-10-17T02:14:12.764Z,0
2017-10-17T02:15:21.614Z,0
2017-10-17T02:16:30.865Z,0
2017-10-17T02:17:39.715Z,0
2017-10-17T02:18:48.566Z,0
2017-10-17T02:19:57.417Z,0
2017-10-17T02:21:06.268Z,0
2017-10-17T02:22:15.268Z,0
2017-10-17T02:23:24.117Z,0
2017-10-17T02:24:32.967Z,0
2017-10-17T02:25:41.818Z,0
2017-10-17T02:26:50.668Z,0
2017-10-17T02:27:59.619Z,0
2017-10-17T02:29:08.471Z,0
2017-10-17T02:30:17.323Z,0
2017-10-17T02:31:26.174Z,0
2017-10-17T02:32:35.023Z,0
2017-10-17T02:33:43.973Z,0
2017-10-17T02:34:52.821Z,0
2017-10-17T02:36:01.668Z,0
2017-10-17T02:37:10.519Z,0
2017-10-17T02:38:19.368Z,0
2017-10-17T02:39:28.267Z,0
2017-10-17T02:40:37.118Z,0
2017-10-17T02:41:45.967Z,0
2017-10-17T02:42:54.820Z,0
2017-10-17T02:44:03.678Z,0
2017-10-17T02:45:12.619Z,0
2017-10-17T02:46:21.468Z,0
2017-10-17T02:47:30.316Z,0
2017-10-17T02:48:39.165Z,0
2017-10-17T02:49:48.013Z,0
2017-10-17T02:50:57.167Z,0
2017-10-17T02:52:06.013Z,0
2017-10-17T02:53:14.859Z,0
2017-10-17T02:54:23.708Z,0
2017-10-17T02:55:32.902Z,0
2017-10-17T02:56:41.852Z,0
2017-10-17T02:57:50.709Z,0
2017-10-17T02:58:59.548Z,0
2017-10-17T03:00:08.400Z,0
2017-10-17T03:01:17.249Z,0
2017-10-17T03:02:26.502Z,0
2017-10-17T03:03:35.352Z,0
2017-10-17T03:04:44.206Z,0
2017-10-17T03:05:53.055Z,0
2017-10-17T03:07:01.906Z,0
2017-10-17T03:08:10.906Z,0
2017-10-17T03:09:19.756Z,0
2017-10-17T03:10:28.607Z,0
2017-10-17T03:11:37.457Z,0
2017-10-17T03:12:46.307Z,0
2017-10-17T03:13:55.262Z,0
2017-10-17T03:15:04.119Z,0
2017-10-17T03:16:12.963Z,0
2017-10-17T03:17:21.815Z,0
2017-10-17T03:18:30.667Z,0
2017-10-17T03:19:39.717Z,0
2017-10-17T03:20:48.568Z,0
2017-10-17T03:21:57.419Z,0
2017-10-17T03:23:06.268Z,0
2017-10-17T03:24:15.116Z,0
2017-10-17T03:25:24.366Z,0
2017-10-17T03:26:33.207Z,0
2017-10-17T03:27:42.060Z,0
2017-10-17T03:28:50.912Z,0
2017-10-17T03:29:59.762Z,0
2017-10-17T03:31:09.356Z,0
2017-10-17T03:32:18.203Z,0
2017-10-17T03:33:27.054Z,0
2017-10-17T03:34:35.905Z,0
2017-10-17T03:35:44.755Z,0
2017-10-17T03:36:53.602Z,0
2017-10-17T03:38:02.453Z,0
2017-10-17T03:39:11.643Z,0
2017-10-17T03:40:20.492Z,0
2017-10-17T03:41:29.340Z,0
2017-10-17T03:42:38.240Z,0
2017-10-17T03:43:47.090Z,0
2017-10-17T03:44:55.940Z,0
2017-10-17T03:46:04.792Z,0
2017-10-17T03:47:13.643Z,0
2017-10-17T03:48:22.595Z,0
2017-10-17T03:49:31.792Z,0
2017-10-17T03:50:40.642Z,0
2017-10-17T03:51:49.499Z,0
2017-10-17T03:52:58.339Z,0
2017-10-17T03:54:07.491Z,0
2017-10-17T03:55:16.339Z,0
2017-10-17T03:56:25.191Z,0
2017-10-17T03:57:34.393Z,0
2017-10-17T03:58:43.245Z,0
2017-10-17T03:59:52.188Z,0
2017-10-17T04:01:01.041Z,0
2017-10-17T04:02:09.887Z,0
2017-10-17T04:03:18.744Z,0
2017-10-17T04:04:27.592Z,0
2017-10-17T04:05:36.588Z,0
2017-10-17T04:06:45.437Z,0
2017-10-17T04:07:54.285Z,0
2017-10-17T04:09:03.132Z,0
2017-10-17T04:10:11.980Z,0
2017-10-17T04:11:21.227Z,0
2017-10-17T04:12:30.080Z,0
2017-10-17T04:13:38.933Z,0
2017-10-17T04:14:47.781Z,0
2017-10-17T04:15:56.634Z,0
2017-10-17T04:17:05.487Z,0
2017-10-17T04:18:14.338Z,0
2017-10-17T04:19:23.187Z,0
2017-10-17T04:20:32.035Z,0
2017-10-17T04:21:40.887Z,0
2017-10-17T04:22:50.036Z,0
2017-10-17T04:23:58.892Z,0
2017-10-17T04:25:07.742Z,0
2017-10-17T04:26:16.592Z,0
2017-10-17T04:27:25.440Z,0
2017-10-17T04:28:34.490Z,0
2017-10-17T04:29:43.340Z,0
2017-10-17T04:30:52.192Z,0
2017-10-17T04:32:01.042Z,0
2017-10-17T04:33:09.897Z,0
2017-10-17T04:34:18.748Z,0
2017-10-17T04:35:27.595Z,0
2017-10-17T04:36:36.445Z,0
2017-10-17T04:37:45.293Z,0
2017-10-17T04:38:54.378Z,0
2017-10-17T04:40:03.229Z,0
2017-10-17T04:41:12.079Z,0
2017-10-17T04:42:20.951Z,0
2017-10-17T04:43:29.801Z,0
2017-10-17T04:44:38.650Z,0
2017-10-17T04:45:47.498Z,0
2017-10-17T04:46:56.694Z,0
2017-10-17T04:48:05.552Z,0
2017-10-17T04:49:14.408Z,0
2017-10-17T04:50:23.253Z,0
2017-10-17T04:51:32.248Z,0
2017-10-17T04:52:41.128Z,0
2017-10-17T04:53:49.978Z,0
2017-10-17T04:54:58.824Z,0
2017-10-17T04:56:07.672Z,0
2017-10-17T04:57:16.524Z,0
2017-10-17T04:58:25.375Z,0
2017-10-17T04:59:34.721Z,0
2017-10-17T05:00:43.918Z,0
2017-10-17T05:01:52.788Z,0
2017-10-17T05:03:01.638Z,0
2017-10-17T05:04:10.488Z,0
2017-10-17T05:05:19.489Z,0
2017-10-17T05:06:28.339Z,0
2017-10-17T05:07:37.191Z,0
2017-10-17T05:08:46.042Z,0
2017-10-17T05:09:54.890Z,0
2017-10-17T05:11:03.995Z,0
2017-10-17T05:12:13.196Z,0
2017-10-17T05:13:22.048Z,0
2017-10-17T05:14:30.899Z,0
2017-10-17T05:15:39.751Z,0
2017-10-17T05:16:48.706Z,0
2017-10-17T05:17:57.557Z,0
2017-10-17T05:19:06.405Z,0
2017-10-17T05:20:15.259Z,0
2017-10-17T05:21:24.111Z,0
2017-10-17T05:22:33.061Z,0
2017-10-17T05:23:41.912Z,0
2017-10-17T05:24:50.762Z,0
2017-10-17T05:25:59.612Z,0
2017-10-17T05:27:08.469Z,0
2017-10-17T05:28:17.414Z,0
2017-10-17T05:29:26.265Z,0
2017-10-17T05:30:35.217Z,0
2017-10-17T05:31:44.072Z,0
2017-10-17T05:32:52.926Z,0
2017-10-17T05:34:02.084Z,0
2017-10-17T05:35:10.928Z,0
2017-10-17T05:36:20.126Z,0
2017-10-17T05:37:28.974Z,0
2017-10-17T05:38:37.825Z,0
2017-10-17T05:39:46.795Z,0
2017-10-17T05:40:55.631Z,0
2017-10-17T05:42:04.481Z,0
2017-10-17T05:43:13.337Z,0
2017-10-17T05:44:22.194Z,0
2017-10-17T05:45:31.101Z,0
2017-10-17T05:46:39.951Z,0
2017-10-17T05:47:48.805Z,0
2017-10-17T05:48:57.714Z,0
2017-10-17T05:50:06.571Z,0
2017-10-17T05:51:15.630Z,0
2017-10-17T05:52:24.484Z,0
2017-10-17T05:53:33.336Z,0
2017-10-17T05:54:42.188Z,0
2017-10-17T05:55:51.041Z,0
2017-10-17T05:56:59.998Z,0
2017-10-17T05:58:08.844Z,0
2017-10-17T05:59:17.703Z,0
2017-10-17T06:00:26.548Z,0
2017-10-17T06:01:35.398Z,0
2017-10-17T06:02:44.452Z,5
2017-10-17T06:03:53.301Z,5
2017-10-17T06:05:02.152Z,5
2017-10-17T06:06:11.004Z,5
2017-10-17T06:07:19.908Z,5
2017-10-17T06:08:28.756Z,5
2017-10-17T06:09:37.606Z,5
2017-10-17T06:10:46.457Z,5
2017-10-17T06:11:55.309Z,5
2017-10-17T06:13:04.162Z,5
2017-10-17T06:14:13.163Z,10
2017-10-17T06:15:22.014Z,10
2017-10-17T06:16:30.866Z,10
2017-10-17T06:17:39.714Z,10
2017-10-17T06:18:48.561Z,10
2017-10-17T06:19:57.664Z,10
2017-10-17T06:21:06.519Z,10
2017-10-17T06:22:15.363Z,10
2017-10-17T06:23:24.214Z,10
2017-10-17T06:24:33.067Z,15
2017-10-17T06:25:42.019Z,15
2017-10-17T06:26:50.876Z,15
2017-10-17T06:27:59.724Z,15
2017-10-17T06:29:08.574Z,15
2017-10-17T06:30:17.427Z,15
2017-10-17T06:31:26.720Z,20
2017-10-17T06:32:35.570Z,20
2017-10-17T06:33:44.414Z,20
2017-10-17T06:34:53.266Z,20
2017-10-17T06:36:02.116Z,25
2017-10-17T06:37:11.016Z,25
2017-10-17T06:38:20.213Z,25
2017-10-17T06:39:29.063Z,25
2017-10-17T06:40:37.912Z,25
2017-10-17T06:41:47.106Z,30
2017-10-17T06:42:56.257Z,30
2017-10-17T06:44:05.109Z,30
2017-10-17T06:45:13.967Z,30
2017-10-17T06:46:22.813Z,30
2017-10-17T06:47:31.667Z,35
2017-10-17T06:48:40.568Z,35
2017-10-17T06:49:49.415Z,35
2017-10-17T06:50:58.266Z,35
2017-10-17T06:52:07.118Z,40
2017-10-17T06:53:15.966Z,40
2017-10-17T06:54:24.970Z,45
2017-10-17T06:55:33.816Z,45
2017-10-17T06:56:42.666Z,45
2017-10-17T06:57:51.519Z,45
2017-10-17T06:59:01.062Z,45
2017-10-17T07:00:10.212Z,50
2017-10-17T07:01:19.062Z,50
2017-10-17T07:02:27.914Z,50
2017-10-17T07:03:36.769Z,55
2017-10-17T07:04:45.619Z,55
2017-10-17T07:05:54.470Z,55
2017-10-17T07:07:03.324Z,55
2017-10-17T07:08:12.175Z,55
2017-10-17T07:09:21.029Z,60
2017-10-17T07:10:29.877Z,60
2017-10-17T07:11:38.728Z,60
2017-10-17T07:12:47.580Z,60
2017-10-17T07:13:56.430Z,60
2017-10-17T07:15:05.282Z,60
2017-10-17T07:16:14.131Z,60
2017-10-17T07:17:22.981Z,65
2017-10-17T07:18:31.831Z,65
2017-10-17T07:19:40.681Z,65
2017-10-17T07:20:49.532Z,65
2017-10-17T07:21:58.383Z,65
2017-10-17T07:23:07.281Z,65
2017-10-17T07:24:16.131Z,65
2017-10-17T07:25:24.982Z,65
2017-10-17T07:26:33.832Z,70
2017-10-17T07:27:42.680Z,70
2017-10-17T07:28:51.833Z,70
2017-10-17T07:30:00.684Z,70
2017-10-17T07:31:09.534Z,75
2017-10-17T07:32:18.384Z,75
2017-10-17T07:33:27.236Z,80
2017-10-17T07:34:36.286Z,80
2017-10-17T07:35:45.137Z,85
2017-10-17T07:36:53.987Z,85
2017-10-17T07:38:03.182Z,90
2017-10-17T07:39:12.033Z,90
2017-10-17T07:40:21.032Z,95
2017-10-17T07:41:29.887Z,95
2017-10-17T07:42:39.084Z,95
2017-10-17T07:43:47.936Z,100
2017-10-17T07:44:56.788Z,100
2017-10-17T07:46:05.693Z,105
2017-10-17T07:47:14.542Z,105
2017-10-17T07:48:23.393Z,110
2017-10-17T07:49:32.244Z,110
2017-10-17T07:50:41.097Z,110
2017-10-17T07:51:50.047Z,115
2017-10-17T07:52:58.898Z,115
2017-10-17T07:54:07.748Z,115
2017-10-17T07:55:16.596Z,115
2017-10-17T07:56:25.448Z,115
2017-10-17T07:57:34.354Z,115
2017-10-17T07:58:43.203Z,115
2017-10-17T07:59:52.051Z,115
2017-10-17T08:01:00.901Z,115
2017-10-17T08:02:09.753Z,115
2017-10-17T08:03:18.908Z,120
2017-10-17T08:04:27.751Z,120
2017-10-17T08:05:36.599Z,120
2017-10-17T08:06:45.448Z,120
2017-10-17T08:07:54.298Z,125
2017-10-17T08:09:03.247Z,125
2017-10-17T08:10:12.098Z,125
2017-10-17T08:11:20.950Z,130
2017-10-17T08:12:29.799Z,130
2017-10-17T08:13:38.649Z,130
2017-10-17T08:14:47.600Z,130
2017-10-17T08:15:56.449Z,130
2017-10-17T08:17:05.303Z,130
2017-10-17T08:18:14.158Z,135
2017-10-17T08:19:23.012Z,135
2017-10-17T08:20:31.963Z,135
2017-10-17T08:21:40.811Z,140
2017-10-17T08:22:49.664Z,140
2017-10-17T08:23:58.514Z,145
2017-10-17T08:25:07.366Z,150
2017-10-17T08:26:16.570Z,150
2017-10-17T08:27:25.421Z,160
2017-10-17T08:28:34.270Z,155
2017-10-17T08:29:43.120Z,155
2017-10-17T08:30:51.969Z,160
2017-10-17T08:32:00.821Z,160
2017-10-17T08:33:09.673Z,165
2017-10-17T08:34:18.521Z,165
2017-10-17T08:35:27.370Z,165
2017-10-17T08:36:36.568Z,165
2017-10-17T08:37:45.672Z,170
2017-10-17T08:38:54.522Z,175
2017-10-17T08:40:03.375Z,175
2017-10-17T08:41:12.571Z,175
2017-10-17T08:42:21.427Z,175
2017-10-17T08:43:30.873Z,180
2017-10-17T08:44:39.724Z,180
2017-10-17T08:45:48.576Z,185
2017-10-17T08:46:57.429Z,185
2017-10-17T08:48:06.284Z,185
2017-10-17T08:49:15.281Z,190
2017-10-17T08:50:24.133Z,190
2017-10-17T08:51:32.988Z,190
2017-10-17T08:52:41.839Z,190
2017-10-17T08:53:50.696Z,190
2017-10-17T08:54:59.702Z,190
2017-10-17T08:56:08.553Z,195
2017-10-17T08:57:17.403Z,195
2017-10-17T08:58:26.256Z,195
2017-10-17T08:59:35.103Z,195
2017-10-17T09:00:44.646Z,195
2017-10-17T09:01:53.498Z,200
2017-10-17T09:03:02.349Z,200
2017-10-17T09:04:11.200Z,200
2017-10-17T09:05:20.047Z,200
2017-10-17T09:06:28.999Z,200
2017-10-17T09:07:37.852Z,200
2017-10-17T09:08:46.703Z,205
2017-10-17T09:09:55.560Z,205
2017-10-17T09:11:04.410Z,210
2017-10-17T09:12:13.410Z,210
2017-10-17T09:13:22.263Z,210
2017-10-17T09:14:31.114Z,215
2017-10-17T09:15:39.966Z,215
2017-10-17T09:16:48.821Z,220
2017-10-17T09:17:58.070Z,225
2017-10-17T09:19:07.288Z,230
2017-10-17T09:20:16.137Z,230
2017-10-17T09:21:24.988Z,235
2017-10-17T09:22:33.839Z,235
2017-10-17T09:23:42.792Z,240
2017-10-17T09:24:51.648Z,240
2017-10-17T09:26:00.847Z,240
2017-10-17T09:27:09.696Z,245
2017-10-17T09:28:18.546Z,245
2017-10-17T09:29:27.547Z,245
2017-10-17T09:30:36.417Z,250
2017-10-17T09:31:45.253Z,250
2017-10-17T09:32:54.105Z,250
2017-10-17T09:34:02.960Z,255
2017-10-17T09:35:11.964Z,260
2017-10-17T09:36:20.813Z,260
2017-10-17T09:37:29.664Z,265
2017-10-17T09:38:38.514Z,265
2017-10-17T09:39:47.363Z,265
2017-10-17T09:40:56.318Z,265
2017-10-17T09:42:05.514Z,265
2017-10-17T09:43:14.366Z,265
2017-10-17T09:44:23.217Z,265
2017-10-17T09:45:32.069Z,265
2017-10-17T09:46:41.122Z,265
2017-10-17T09:47:49.972Z,265
2017-10-17T09:48:58.825Z,265
2017-10-17T09:50:07.680Z,265
2017-10-17T09:51:16.531Z,265
2017-10-17T09:52:25.635Z,265
2017-10-17T09:53:34.485Z,265
2017-10-17T09:54:43.337Z,275
2017-10-17T09:55:52.189Z,275
2017-10-17T09:57:01.037Z,275
2017-10-17T09:58:10.345Z,275
2017-10-17T09:59:19.195Z,275
2017-10-17T10:00:28.046Z,275
2017-10-17T10:01:36.896Z,275
2017-10-17T10:02:45.750Z,270
2017-10-17T10:03:54.803Z,275
2017-10-17T10:05:03.656Z,285
2017-10-17T10:06:12.509Z,275
2017-10-17T10:07:21.362Z,275
2017-10-17T10:08:30.213Z,275
2017-10-17T10:09:39.368Z,270
2017-10-17T10:10:48.221Z,270
2017-10-17T10:11:57.074Z,270
2017-10-17T10:13:05.926Z,270
2017-10-17T10:14:14.780Z,270
2017-10-17T10:15:23.832Z,270
2017-10-17T10:16:33.029Z,275
2017-10-17T10:17:42.227Z,275
2017-10-17T10:18:51.079Z,275
2017-10-17T10:19:59.933Z,285
2017-10-17T10:21:08.883Z,280
2017-10-17T10:22:17.743Z,280
2017-10-17T10:23:26.590Z,280
2017-10-17T10:24:35.445Z,280
2017-10-17T10:25:44.300Z,290
2017-10-17T10:26:53.252Z,290
2017-10-17T10:28:02.449Z,295
2017-10-17T10:29:11.301Z,300
2017-10-17T10:30:20.147Z,305
2017-10-17T10:31:28.999Z,310
2017-10-17T10:32:37.950Z,310
2017-10-17T10:33:46.804Z,315
2017-10-17T10:34:55.655Z,315
2017-10-17T10:36:04.509Z,320
2017-10-17T10:37:13.363Z,320
2017-10-17T10:38:22.417Z,325
2017-10-17T10:39:31.269Z,330
2017-10-17T10:40:40.121Z,335
2017-10-17T10:41:48.972Z,340
2017-10-17T10:42:57.824Z,345
2017-10-17T10:44:06.876Z,345
2017-10-17T10:45:15.742Z,350
2017-10-17T10:46:24.582Z,350
2017-10-17T10:47:33.782Z,355
2017-10-17T10:48:42.635Z,355
2017-10-17T10:49:51.690Z,360
2017-10-17T10:51:00.543Z,360
2017-10-17T10:52:09.396Z,365
2017-10-17T10:53:18.247Z,365
2017-10-17T10:54:27.100Z,370
2017-10-17T10:55:35.952Z,365
2017-10-17T10:56:44.808Z,370
2017-10-17T10:57:53.657Z,365
2017-10-17T10:59:02.511Z,365
2017-10-17T11:00:11.364Z,365
2017-10-17T11:01:20.421Z,370
2017-10-17T11:02:29.273Z,375
2017-10-17T11:03:38.126Z,380
2017-10-17T11:04:46.978Z,385
2017-10-17T11:05:55.834Z,380
2017-10-17T11:07:04.792Z,385
2017-10-17T11:08:13.642Z,385
2017-10-17T11:09:22.495Z,380
2017-10-17T11:10:31.350Z,375
2017-10-17T11:11:40.549Z,375
2017-10-17T11:12:49.651Z,375
2017-10-17T11:13:58.504Z,375
2017-10-17T11:15:07.358Z,370
2017-10-17T11:16:16.210Z,370
2017-10-17T11:17:25.061Z,365
2017-10-17T11:18:34.162Z,365
2017-10-17T11:19:43.016Z,365
2017-10-17T11:20:51.868Z,365
2017-10-17T11:22:00.720Z,365
2017-10-17T11:23:09.574Z,360
2017-10-17T11:24:18.577Z,365
2017-10-17T11:25:27.434Z,375
2017-10-17T11:26:36.287Z,380
2017-10-17T11:27:45.141Z,380
2017-10-17T11:28:53.994Z,385
2017-10-17T11:30:02.954Z,385
2017-10-17T11:31:12.151Z,380
2017-10-17T11:32:21.060Z,375
2017-10-17T11:33:29.912Z,375
2017-10-17T11:34:38.767Z,375
2017-10-17T11:35:47.666Z,375
2017-10-17T11:36:56.539Z,380
2017-10-17T11:38:05.396Z,380
2017-10-17T11:39:14.269Z,385
2017-10-17T11:40:23.741Z,385
2017-10-17T11:41:32.699Z,390
2017-10-17T11:42:41.549Z,390
2017-10-17T11:43:50.401Z,400
2017-10-17T11:44:59.260Z,400
2017-10-17T11:46:08.108Z,390
2017-10-17T11:47:17.008Z,390
2017-10-17T11:48:25.859Z,395
2017-10-17T11:49:34.711Z,385
2017-10-17T11:50:43.565Z,380
2017-10-17T11:51:52.416Z,390
2017-10-17T11:53:01.470Z,395
2017-10-17T11:54:10.325Z,405
2017-10-17T11:55:19.179Z,400
2017-10-17T11:56:28.034Z,400
2017-10-17T11:57:36.890Z,400
2017-10-17T11:58:45.845Z,405
2017-10-17T11:59:54.700Z,395
2017-10-17T12:01:03.556Z,385
2017-10-17T12:02:12.413Z,380
2017-10-17T12:03:21.609Z,380
2017-10-17T12:04:30.560Z,365
2017-10-17T12:05:39.666Z,360
2017-10-17T12:06:48.738Z,380
2017-10-17T12:07:57.594Z,385
2017-10-17T12:09:06.451Z,380
2017-10-17T12:10:15.504Z,375
2017-10-17T12:11:24.708Z,380
2017-10-17T12:12:33.563Z,380
2017-10-17T12:13:42.416Z,375
2017-10-17T12:14:51.272Z,380
2017-10-17T12:16:00.432Z,380
2017-10-17T12:17:09.287Z,380
2017-10-17T12:18:18.138Z,370
2017-10-17T12:19:26.990Z,365
2017-10-17T12:20:35.844Z,365
2017-10-17T12:21:44.898Z,365
2017-10-17T12:22:53.750Z,365
2017-10-17T12:24:02.603Z,365
2017-10-17T12:25:11.463Z,350
2017-10-17T12:26:20.317Z,345
2017-10-17T12:27:29.171Z,335
2017-10-17T12:28:38.030Z,335
2017-10-17T12:29:48.613Z,350
2017-10-17T12:30:58.782Z,355
2017-10-17T12:32:08.229Z,345
2017-10-17T12:33:17.084Z,345
2017-10-17T12:34:25.939Z,340
2017-10-17T12:35:36.411Z,340
2017-10-17T12:36:46.178Z,340
2017-10-17T12:37:55.392Z,345
2017-10-17T12:39:04.752Z,350
2017-10-17T12:40:14.248Z,345
2017-10-17T12:41:23.825Z,345
2017-10-17T12:42:33.223Z,335
2017-10-17T12:43:42.404Z,325
2017-10-17T12:44:51.530Z,320
2017-10-17T12:46:00.977Z,325
2017-10-17T12:47:10.354Z,340
2017-10-17T12:48:20.210Z,350
2017-10-17T12:49:30.704Z,340
2017-10-17T12:50:40.285Z,330
2017-10-17T12:51:49.146Z,330
2017-10-17T12:52:58.808Z,325
2017-10-17T12:54:07.748Z,325
2017-10-17T12:55:16.729Z,325
2017-10-17T12:56:26.499Z,325
2017-10-17T12:57:36.489Z,325
2017-10-17T12:58:45.422Z,330
2017-10-17T12:59:54.276Z,330
2017-10-17T13:01:03.132Z,325
2017-10-17T13:02:12.135Z,335
2017-10-17T13:03:20.990Z,350
2017-10-17T13:04:29.845Z,335
2017-10-17T13:05:38.699Z,330
2017-10-17T13:06:47.553Z,325
2017-10-17T13:07:56.505Z,330
2017-10-17T13:09:05.365Z,320
2017-10-17T13:10:14.566Z,315
2017-10-17T13:11:23.420Z,310
2017-10-17T13:12:32.275Z,310
2017-10-17T13:13:41.355Z,320
2017-10-17T13:14:50.189Z,325
2017-10-17T13:15:59.050Z,325
2017-10-17T13:17:07.900Z,315
2017-10-17T13:18:16.752Z,305
2017-10-17T13:19:25.707Z,305
2017-10-17T13:20:34.564Z,305
2017-10-17T13:21:43.415Z,305
2017-10-17T13:22:52.270Z,295
2017-10-17T13:24:01.124Z,295
2017-10-17T13:25:10.281Z,295
2017-10-17T13:26:19.158Z,295
2017-10-17T13:27:27.997Z,295
2017-10-17T13:28:36.859Z,300
2017-10-17T13:29:45.705Z,300
2017-10-17T13:30:54.561Z,295
2017-10-17T13:32:03.427Z,295
2017-10-17T13:33:12.280Z,295
2017-10-17T13:34:21.133Z,295
2017-10-17T13:35:30.113Z,285
2017-10-17T13:36:38.962Z,270
2017-10-17T13:37:47.813Z,250
2017-10-17T13:38:56.668Z,235
2017-10-17T13:40:05.520Z,225
2017-10-17T13:41:14.376Z,215
2017-10-17T13:42:23.242Z,210
2017-10-17T13:43:32.105Z,205
2017-10-17T13:44:40.961Z,195
2017-10-17T13:45:49.816Z,185
2017-10-17T13:46:58.674Z,185
2017-10-17T13:48:07.530Z,180
2017-10-17T13:49:16.390Z,175
2017-10-17T13:50:25.253Z,170
2017-10-17T13:51:34.134Z,165
2017-10-17T13:52:42.997Z,160
2017-10-17T13:53:51.854Z,155
2017-10-17T13:55:00.707Z,160
2017-10-17T13:56:09.562Z,165
2017-10-17T13:57:18.418Z,165
2017-10-17T13:58:27.273Z,165
2017-10-17T13:59:36.128Z,165
2017-10-17T14:00:44.979Z,170
2017-10-17T14:01:53.893Z,170
2017-10-17T14:03:02.756Z,170
2017-10-17T14:04:11.626Z,165
2017-10-17T14:05:20.541Z,160
2017-10-17T14:06:29.410Z,155
2017-10-17T14:07:38.909Z,150
2017-10-17T14:08:47.767Z,150
2017-10-17T14:09:56.741Z,150
2017-10-17T14:11:05.799Z,160
2017-10-17T14:12:15.013Z,155
2017-10-17T14:13:25.275Z,155
2017-10-17T14:14:34.129Z,155
2017-10-17T14:15:43.000Z,150
2017-10-17T14:16:51.840Z,150
2017-10-17T14:18:00.691Z,145
2017-10-17T14:19:09.932Z,145
2017-10-17T14:20:18.788Z,145
2017-10-17T14:21:27.637Z,140
2017-10-17T14:22:36.496Z,140
2017-10-17T14:23:45.352Z,135
2017-10-17T14:24:54.358Z,135
2017-10-17T14:26:03.231Z,130
2017-10-17T14:27:12.084Z,125
2017-10-17T14:28:20.937Z,120
2017-10-17T14:29:29.803Z,120
2017-10-17T14:30:38.670Z,115
2017-10-17T14:31:47.532Z,110
2017-10-17T14:32:56.385Z,110
2017-10-17T14:34:05.236Z,110
2017-10-17T14:35:14.090Z,115
2017-10-17T14:36:22.944Z,115
2017-10-17T14:37:31.798Z,110
2017-10-17T14:38:40.655Z,105
2017-10-17T14:39:49.509Z,105
2017-10-17T14:40:58.705Z,105
2017-10-17T14:42:07.558Z,100
2017-10-17T14:43:16.409Z,100
2017-10-17T14:44:25.267Z,95
2017-10-17T14:45:34.141Z,95
2017-10-17T14:46:43.093Z,95
2017-10-17T14:47:51.944Z,90
2017-10-17T14:49:00.799Z,90
2017-10-17T14:50:09.651Z,85
2017-10-17T14:51:18.509Z,80
2017-10-17T14:52:27.389Z,75
2017-10-17T14:53:36.218Z,75
2017-10-17T14:54:45.071Z,70
2017-10-17T14:55:53.921Z,70
2017-10-17T14:57:02.773Z,75
2017-10-17T14:58:11.626Z,75
2017-10-17T14:59:20.478Z,75
2017-10-17T15:00:29.332Z,80
2017-10-17T15:01:38.387Z,75
2017-10-17T15:02:47.238Z,75
2017-10-17T15:03:56.098Z,70
2017-10-17T15:05:05.310Z,70
2017-10-17T15:06:14.165Z,65
2017-10-17T15:07:23.369Z,65
2017-10-17T15:08:32.222Z,60
2017-10-17T15:09:41.100Z,60
2017-10-17T15:10:49.953Z,60
2017-10-17T15:11:58.804Z,55
2017-10-17T15:13:07.758Z,50
2017-10-17T15:14:16.610Z,50
2017-10-17T15:15:25.459Z,50
2017-10-17T15:16:34.311Z,50
2017-10-17T15:17:43.164Z,50
2017-10-17T15:18:52.067Z,50
2017-10-17T15:20:00.918Z,50
2017-10-17T15:21:09.772Z,50
2017-10-17T15:22:18.626Z,50
2017-10-17T15:23:27.481Z,50
2017-10-17T15:24:36.383Z,50
2017-10-17T15:25:45.235Z,50
2017-10-17T15:26:54.091Z,50
2017-10-17T15:28:02.942Z,45
2017-10-17T15:29:11.792Z,45
2017-10-17T15:30:20.648Z,45
2017-10-17T15:31:29.502Z,45
2017-10-17T15:32:38.355Z,45
2017-10-17T15:33:47.206Z,40
2017-10-17T15:34:56.056Z,40
2017-10-17T15:36:05.158Z,35
2017-10-17T15:37:14.009Z,35
2017-10-17T15:38:22.863Z,35
2017-10-17T15:39:31.711Z,35
2017-10-17T15:40:40.568Z,30
2017-10-17T15:41:49.517Z,30
2017-10-17T15:42:58.371Z,30
2017-10-17T15:44:07.223Z,30
2017-10-17T15:45:16.075Z,30
2017-10-17T15:46:24.928Z,30
2017-10-17T15:47:33.895Z,30
2017-10-17T15:48:42.748Z,30
2017-10-17T15:49:51.599Z,30
2017-10-17T15:51:00.455Z,30
2017-10-17T15:52:09.312Z,30
2017-10-17T15:53:18.273Z,30
2017-10-17T15:54:27.126Z,25
2017-10-17T15:55:35.979Z,25
2017-10-17T15:56:44.835Z,25
2017-10-17T15:57:53.693Z,25
2017-10-17T15:59:02.991Z,20
2017-10-17T16:00:11.844Z,20
2017-10-17T16:01:20.695Z,20
2017-10-17T16:02:29.545Z,20
2017-10-17T16:03:38.399Z,15
2017-10-17T16:04:47.536Z,15
2017-10-17T16:05:56.387Z,15
2017-10-17T16:07:05.243Z,15
2017-10-17T16:08:14.092Z,10
2017-10-17T16:09:22.945Z,10
2017-10-17T16:10:31.799Z,10
2017-10-17T16:11:40.651Z,10
2017-10-17T16:12:49.504Z,5
2017-10-17T16:13:58.357Z,5
2017-10-17T16:15:07.214Z,5
2017-10-17T16:16:16.467Z,5
2017-10-17T16:17:25.328Z,5
2017-10-17T16:18:34.179Z,5
2017-10-17T16:19:43.031Z,5
2017-10-17T16:20:51.885Z,5
2017-10-17T16:22:00.738Z,0